Time;durP1;ratioP1;P1;durP2;ratioP2;P2;SDS_P1;SDS_P2;PMS_P1;PMS_P2;Temp;Humidity;BMP_temperature;BMP_pressure;BME280_temperature;BME280_humidity;BME280_pressure;Samples;Min_cycle;Max_cycle;Signal;HPM_P1;HPM_P2
2022/05/25 00:00:43;;;;;;;10.70;8.13;;;;;;;19.39;nan;98940.81;5052729;28;20040;-74
2022/05/25 00:03:09;;;;;;;10.10;9.05;;;;;;;19.45;nan;98924.75;5048272;28;20477;-75
2022/05/25 00:05:35;;;;;;;10.55;9.43;;;;;;;19.47;nan;98927.22;5052296;28;20345;-74
2022/05/25 00:08:01;;;;;;;15.02;9.20;;;;;;;19.46;nan;98925.56;5051707;28;20032;-74
2022/05/25 00:10:27;;;;;;;10.98;8.98;;;;;;;19.43;nan;98921.47;5052508;28;20029;-75
2022/05/25 00:12:52;;;;;;;11.20;9.38;;;;;;;19.41;nan;98928.06;5052490;28;20029;-75
2022/05/25 00:15:18;;;;;;;9.65;8.85;;;;;;;19.41;nan;98933.41;5052053;28;20086;-74
2022/05/25 00:17:43;;;;;;;10.02;8.88;;;;;;;19.42;nan;98937.72;5052264;28;20486;-74
2022/05/25 00:20:10;;;;;;;10.77;9.32;;;;;;;19.42;nan;98929.69;5051767;28;20049;-74
2022/05/25 00:22:49;;;;;;;10.70;9.10;;;;;;;19.38;nan;98928.50;5051957;28;20021;-74
2022/05/25 00:25:30;;;;;;;12.75;9.65;;;;;;;19.34;nan;98940.63;5049028;28;20409;-74
2022/05/25 00:27:59;;;;;;;;;;;;;;;19.32;nan;98942.72;5052521;28;20040;-74
2022/05/25 00:30:25;;;;;;;10.43;9.30;;;;;;;19.33;nan;98936.31;5052192;28;19935;-75
2022/05/25 00:32:52;;;;;;;13.88;9.50;;;;;;;19.34;nan;98929.94;5052111;28;20036;-74
2022/05/25 00:35:20;;;;;;;15.98;9.77;;;;;;;19.36;nan;98933.22;5051690;28;20445;-74
2022/05/25 00:37:46;;;;;;;10.73;9.73;;;;;;;19.34;nan;98921.91;5051853;28;20025;-74
2022/05/25 00:40:26;;;;;;;13.00;9.98;;;;;;;19.31;nan;98912.47;5051552;28;20481;-74
2022/05/25 00:42:52;;;;;;;14.63;9.82;;;;;;;19.30;nan;98926.06;5048543;28;20040;-75
2022/05/25 00:45:17;;;;;;;11.05;9.93;;;;;;;19.24;nan;98922.38;5051536;28;20024;-75
2022/05/25 00:47:47;;;;;;;11.43;10.00;;;;;;;19.20;nan;98921.97;5051833;28;20401;-75
2022/05/25 00:50:15;;;;;;;14.27;10.38;;;;;;;19.22;nan;98925.25;5047955;28;20466;-74
2022/05/25 00:52:43;;;;;;;10.50;9.52;;;;;;;19.23;nan;98942.97;5047758;28;20052;-75
2022/05/25 00:55:11;;;;;;;14.27;10.45;;;;;;;19.11;nan;98960.69;5047433;28;20546;-75
2022/05/25 00:57:41;;;;;;;10.65;9.63;;;;;;;18.95;nan;98976.41;5050198;28;20033;-75
2022/05/25 01:00:23;;;;;;;11.48;10.30;;;;;;;18.87;nan;98982.78;5048714;28;20056;-75
2022/05/25 01:02:53;;;;;;;11.63;10.38;;;;;;;18.88;nan;98987.09;5046449;28;20106;-75
2022/05/25 01:05:25;;;;;;;11.40;9.63;;;;;;;18.91;nan;98986.66;5050791;28;20044;-74
2022/05/25 01:08:08;;;;;;;11.60;10.50;;;;;;;18.98;nan;98981.31;5051463;28;20473;-75
2022/05/25 01:10:52;;;;;;;14.45;10.27;;;;;;;18.99;nan;98989.13;5051607;28;20053;-74
2022/05/25 01:13:36;;;;;;;12.23;10.68;;;;;;;18.98;nan;98995.50;5048131;28;20521;-74
2022/05/25 01:16:20;;;;;;;11.48;10.25;;;;;;;18.99;nan;98994.47;5051144;28;20075;-74
2022/05/25 01:19:04;;;;;;;14.85;11.18;;;;;;;18.97;nan;98991.19;5048153;28;20033;-77
2022/05/25 01:21:51;;;;;;;12.30;10.73;;;;;;;18.96;nan;98994.91;5049992;28;20071;-74
2022/05/25 01:24:25;;;;;;;14.48;11.68;;;;;;;18.93;nan;98989.97;5047868;28;20044;-75
2022/05/25 01:27:03;;;;;;;11.13;9.82;;;;;;;18.90;nan;98985.06;5051272;28;20037;-75
2022/05/25 01:29:51;;;;;;;13.82;10.73;;;;;;;18.90;nan;98990.41;5051031;28;20037;-75
2022/05/25 01:32:37;;;;;;;12.45;11.05;;;;;;;18.91;nan;98985.88;5047835;28;20032;-74
2022/05/25 01:35:06;;;;;;;13.20;10.88;;;;;;;18.92;nan;98987.50;5050900;28;20043;-74
2022/05/25 01:37:56;;;;;;;12.45;11.07;;;;;;;18.89;nan;98988.75;5050508;28;20044;-73
2022/05/25 01:40:37;;;;;;;15.68;10.57;;;;;;;18.91;nan;98996.56;5048131;28;20064;-75
2022/05/25 01:43:11;;;;;;;15.40;11.40;;;;;;;18.89;nan;98994.09;5050485;28;20032;-75
2022/05/25 01:45:52;;;;;;;13.77;11.60;;;;;;;18.85;nan;98998.19;5050802;28;20116;-74
2022/05/25 01:48:21;;;;;;;14.90;11.45;;;;;;;18.67;nan;98990.03;5047522;28;20078;-76
2022/05/25 01:51:00;;;;;;;12.82;11.48;;;;;;;18.65;nan;98997.44;5050563;28;20029;-74
2022/05/25 01:53:30;;;;;;;14.88;11.30;;;;;;;18.72;nan;98998.25;5049429;28;20047;-75
2022/05/25 01:55:58;;;;;;;;;;;;;;;18.76;nan;99004.81;5051032;28;20029;-76
2022/05/25 01:58:26;;;;;;;13.68;12.18;;;;;;;18.78;nan;99002.75;5050397;28;19917;-75
2022/05/25 02:00:56;;;;;;;12.88;11.55;;;;;;;18.82;nan;98998.63;5050500;28;20028;-76
2022/05/25 02:06:15;;;;;;;13.50;11.25;;;;;;;18.81;nan;98991.63;5049860;28;20039;-76
2022/05/25 02:08:46;;;;;;;14.05;11.68;;;;;;;18.85;nan;98995.53;5046478;28;20037;-76
2022/05/25 02:11:22;;;;;;;12.40;11.10;;;;;;;18.86;nan;98993.69;5046578;28;20067;-76
2022/05/25 02:14:08;;;;;;;12.20;10.82;;;;;;;18.89;nan;98988.75;5046252;28;20397;-75
2022/05/25 02:16:45;;;;;;;12.98;11.75;;;;;;;18.88;nan;98984.44;5050385;28;20106;-76
2022/05/25 02:19:25;;;;;;;12.45;11.18;;;;;;;18.86;nan;98994.50;5043867;28;20041;-76
2022/05/25 02:22:09;;;;;;;17.08;12.10;;;;;;;18.88;nan;99003.16;5047682;28;20055;-76
2022/05/25 02:24:46;;;;;;;13.45;12.20;;;;;;;18.86;nan;99005.19;5050245;28;20040;-75
2022/05/25 02:27:13;;;;;;;12.57;11.35;;;;;;;18.86;nan;99002.53;5046277;28;20037;-76
2022/05/25 02:29:46;;;;;;;25.63;11.60;;;;;;;18.85;nan;99002.75;5046162;28;20033;-76
2022/05/25 02:32:22;;;;;;;13.57;12.02;;;;;;;18.81;nan;99005.84;5045934;28;20033;-75
2022/05/25 02:34:50;;;;;;;12.02;10.90;;;;;;;18.83;nan;99007.47;5046808;28;20044;-75
2022/05/25 02:37:19;;;;;;;11.77;10.35;;;;;;;18.78;nan;99008.94;5049635;28;20029;-75
2022/05/25 02:39:46;;;;;;;16.88;11.73;;;;;;;18.74;nan;99007.69;5049975;28;20044;-76
2022/05/25 02:42:15;;;;;;;15.68;12.48;;;;;;;18.75;nan;99021.88;5048525;28;20045;-76
2022/05/25 02:44:41;;;;;;;14.75;11.63;;;;;;;18.73;nan;99026.63;5046251;28;20493;-75
2022/05/25 02:47:08;;;;;;;13.40;11.23;;;;;;;18.69;nan;99020.84;5049551;28;20025;-76
2022/05/25 02:49:34;;;;;;;15.30;11.48;;;;;;;18.66;nan;99026.63;5049627;28;20234;-75
2022/05/25 02:51:59;;;;;;;15.77;11.05;;;;;;;18.64;nan;99028.69;5049758;28;20021;-76
2022/05/25 02:54:25;;;;;;;12.70;11.45;;;;;;;18.63;nan;99031.53;5049786;28;20060;-76
2022/05/25 02:56:50;;;;;;;13.13;11.70;;;;;;;18.64;nan;99033.19;5049905;28;20055;-76
2022/05/25 02:59:16;;;;;;;13.23;11.15;;;;;;;18.63;nan;99047.59;5049592;28;20060;-76
2022/05/25 03:01:42;;;;;;;12.45;11.15;;;;;;;18.59;nan;99051.72;5049861;28;20440;-76
2022/05/25 03:04:07;;;;;;;13.23;11.57;;;;;;;18.56;nan;99057.44;5049088;28;20025;-76
2022/05/25 03:06:33;;;;;;;11.65;10.55;;;;;;;18.57;nan;99059.09;5049744;28;20041;-76
2022/05/25 03:09:00;;;;;;;16.23;10.80;;;;;;;18.60;nan;99054.19;5048550;28;20535;-75
2022/05/25 03:11:25;;;;;;;12.20;10.20;;;;;;;18.62;nan;99061.97;5048424;28;20037;-75
2022/05/25 03:13:51;;;;;;;14.82;11.70;;;;;;;18.61;nan;99060.34;5049758;28;20029;-76
2022/05/25 03:16:19;;;;;;;14.32;10.32;;;;;;;18.62;nan;99068.13;5048211;28;20029;-76
2022/05/25 03:18:46;;;;;;;12.90;11.02;;;;;;;18.64;nan;99067.94;5049537;28;20040;-76
2022/05/25 03:21:12;;;;;;;17.45;11.13;;;;;;;18.65;nan;99072.25;5049354;28;20029;-76
2022/05/25 03:23:38;;;;;;;12.43;11.23;;;;;;;18.66;nan;99079.25;5049246;28;20044;-76
2022/05/25 03:26:04;;;;;;;11.90;10.70;;;;;;;18.67;nan;99080.91;5048116;28;20078;-75
2022/05/25 03:28:29;;;;;;;12.18;10.98;;;;;;;18.69;nan;99089.53;5049515;28;20033;-75
2022/05/25 03:30:55;;;;;;;13.50;12.10;;;;;;;18.72;nan;99083.78;5049580;28;20032;-77
2022/05/25 03:33:21;;;;;;;15.85;11.02;;;;;;;18.75;nan;99094.88;5049245;28;20440;-76
2022/05/25 03:35:46;;;;;;;14.43;12.07;;;;;;;18.77;nan;99098.16;5049449;28;20037;-76
2022/05/25 03:38:12;;;;;;;13.00;11.63;;;;;;;18.78;nan;99090.97;5047971;28;20029;-76
2022/05/25 03:40:38;;;;;;;12.57;11.38;;;;;;;18.77;nan;99098.16;5049200;28;20036;-74
2022/05/25 03:43:14;;;;;;;17.02;12.82;;;;;;;18.64;nan;99102.69;5049305;28;20048;-76
2022/05/25 03:45:39;;;;;;;13.68;11.63;;;;;;;18.56;nan;99094.84;5049035;28;20028;-76
2022/05/25 03:48:07;;;;;;;15.20;13.00;;;;;;;18.55;nan;99103.91;5050136;28;20063;-76
2022/05/25 03:50:36;;;;;;;13.30;12.00;;;;;;;18.50;nan;99106.31;5053018;28;20128;-75
2022/05/25 03:53:02;;;;;;;14.07;12.68;;;;;;;18.39;nan;99105.91;5052667;28;20025;-76
2022/05/25 03:55:28;;;;;;;13.85;12.50;;;;;;;18.33;nan;99112.06;5052915;28;20474;-75
2022/05/25 03:57:53;;;;;;;14.55;12.82;;;;;;;18.26;nan;99111.22;5051544;28;20512;-77
2022/05/25 04:00:19;;;;;;;14.68;12.48;;;;;;;18.19;nan;99114.94;5052474;28;20037;-76
2022/05/25 04:02:46;;;;;;;18.58;13.75;;;;;;;18.19;nan;99110.41;5052598;28;20017;-76
2022/05/25 04:05:12;;;;;;;15.50;13.63;;;;;;;18.20;nan;99112.03;5052560;28;20032;-75
2022/05/25 04:07:45;;;;;;;15.77;13.38;;;;;;;18.24;nan;99113.31;5052546;28;20025;-75
2022/05/25 04:10:15;;;;;;;14.80;13.30;;;;;;;18.29;nan;99116.19;5048516;28;20036;-75
2022/05/25 04:12:42;;;;;;;14.45;12.60;;;;;;;18.37;nan;99117.84;5048700;28;20028;-75
2022/05/25 04:15:10;;;;;;;16.08;13.82;;;;;;;18.42;nan;99126.06;5052355;28;20029;-75
2022/05/25 04:17:35;;;;;;;17.10;14.13;;;;;;;18.41;nan;99133.25;5052014;28;20025;-74
2022/05/25 04:20:02;;;;;;;16.00;13.20;;;;;;;18.40;nan;99133.44;5051807;28;20087;-76
2022/05/25 04:22:29;;;;;;;16.67;13.65;;;;;;;18.44;nan;99139.22;5052353;28;20037;-76
2022/05/25 04:24:56;;;;;;;21.02;12.93;;;;;;;18.41;nan;99135.94;5052611;28;20036;-77
2022/05/25 04:27:21;;;;;;;15.18;13.23;;;;;;;18.44;nan;99140.03;5052185;28;20061;-76
2022/05/25 04:29:47;;;;;;;14.15;12.75;;;;;;;18.42;nan;99140.25;5052553;28;20055;-76
2022/05/25 04:32:12;;;;;;;14.40;12.95;;;;;;;18.45;nan;99146.19;5052930;28;20025;-75
2022/05/25 04:34:38;;;;;;;13.02;11.25;;;;;;;18.51;nan;99150.72;5052669;28;20056;-75
2022/05/25 04:39:48;;;;;;;14.45;12.98;;;;;;;18.55;nan;99152.84;5047756;28;20123;-75
2022/05/25 04:42:13;;;;;;;13.70;12.27;;;;;;;18.59;nan;99147.91;5051637;28;20100;-75
2022/05/25 04:44:39;;;;;;;14.85;13.07;;;;;;;18.60;nan;99149.56;5050707;28;20485;-75
2022/05/25 04:47:08;;;;;;;17.02;12.60;;;;;;;18.65;nan;99157.78;5051571;28;20041;-76
2022/05/25 04:49:35;;;;;;;14.50;12.88;;;;;;;18.64;nan;99156.13;5050763;28;20040;-76
2022/05/25 04:52:01;;;;;;;13.65;12.05;;;;;;;18.63;nan;99162.50;5051615;28;20170;-76
2022/05/25 04:54:27;;;;;;;16.10;12.63;;;;;;;18.61;nan;99162.72;5051586;28;20037;-76
2022/05/25 04:59:37;;;;;;;14.13;12.43;;;;;;;18.58;nan;99162.28;5051573;28;20032;-76
2022/05/25 05:02:03;;;;;;;15.50;13.13;;;;;;;18.55;nan;99162.72;5049959;28;20405;-75
2022/05/25 05:04:28;;;;;;;14.10;12.30;;;;;;;18.61;nan;99157.38;5051251;28;20033;-77
2022/05/25 05:06:54;;;;;;;15.57;12.73;;;;;;;18.68;nan;99168.88;5051396;28;20045;-75
2022/05/25 05:09:19;;;;;;;15.25;12.73;;;;;;;18.71;nan;99173.00;5050611;28;20069;-74
2022/05/25 05:11:46;;;;;;;14.52;12.55;;;;;;;18.76;nan;99181.22;5050568;28;20135;-73
2022/05/25 05:14:14;;;;;;;14.93;13.38;;;;;;;18.70;nan;99188.22;5050515;28;20493;-73
2022/05/25 05:16:39;;;;;;;17.60;13.25;;;;;;;18.64;nan;99182.84;5048666;28;20033;-74
2022/05/25 05:19:18;;;;;;;18.67;12.18;;;;;;;18.65;nan;99179.16;5034161;28;20045;-74
2022/05/25 05:22:02;;;;;;;12.68;11.30;;;;;;;18.75;nan;99190.25;5050773;28;20037;-74
2022/05/25 05:24:31;;;;;;;15.45;11.60;;;;;;;18.89;nan;99181.25;5051130;28;20131;-76
2022/05/25 05:26:57;;;;;;;17.00;12.52;;;;;;;18.98;nan;99185.34;5050745;28;20062;-74
2022/05/25 05:29:24;;;;;;;16.83;12.52;;;;;;;19.13;nan;99188.66;5050417;28;20168;-73
2022/05/25 05:31:50;;;;;;;13.27;11.88;;;;;;;19.22;nan;99192.75;5050832;28;20087;-70
2022/05/25 05:34:16;;;;;;;13.07;11.68;;;;;;;19.25;nan;99196.03;5049775;28;20025;-69
2022/05/25 05:36:52;;;;;;;14.88;12.68;;;;;;;19.23;nan;99194.41;5050779;28;20481;-73
2022/05/25 05:39:21;;;;;;;14.13;12.80;;;;;;;19.21;nan;99201.78;5046007;28;20028;-69
2022/05/25 05:41:57;;;;;;;15.02;12.70;;;;;;;19.08;nan;99201.00;5044692;28;20040;-69
2022/05/25 05:44:29;;;;;;;16.80;11.88;;;;;;;19.18;nan;99196.03;5043971;28;20037;-69
2022/05/25 05:46:58;;;;;;;16.90;12.25;;;;;;;19.34;nan;99198.28;5045930;28;20075;-69
2022/05/25 05:49:24;;;;;;;16.42;12.32;;;;;;;19.46;nan;99198.50;5046007;28;20043;-69
2022/05/25 05:51:49;;;;;;;14.23;12.38;;;;;;;19.53;nan;99199.34;5047411;28;20032;-70
2022/05/25 05:54:16;;;;;;;13.50;11.43;;;;;;;19.60;nan;99202.81;5046555;28;20116;-69
2022/05/25 05:56:42;;;;;;;16.90;12.10;;;;;;;19.67;nan;99206.31;5047484;28;20197;-71
2022/05/25 05:59:08;;;;;;;13.25;11.85;;;;;;;19.68;nan;99202.56;5046431;28;20112;-69
2022/05/25 06:01:33;;;;;;;14.20;12.13;;;;;;;19.76;nan;99205.03;4698362;28;9999950;-70
2022/05/25 06:03:59;;;;;;;13.15;11.52;;;;;;;19.86;nan;99208.09;5041716;28;20075;-74
2022/05/25 06:06:24;;;;;;;13.30;11.55;;;;;;;19.90;nan;99206.66;5045242;28;20033;-73
2022/05/25 06:08:52;;;;;;;15.25;12.63;;;;;;;19.98;nan;99209.09;5046083;28;20033;-74
2022/05/25 06:11:19;;;;;;;13.82;12.00;;;;;;;20.08;nan;99219.38;5046343;28;20039;-75
2022/05/25 06:13:46;;;;;;;15.57;11.60;;;;;;;20.11;nan;99220.78;5047869;28;20037;-74
2022/05/25 06:21:40;;;;;;;13.30;11.80;;;;;;;20.02;nan;99245.16;5045064;28;20036;-75
2022/05/25 06:24:06;;;;;;;14.02;11.93;;;;;;;19.96;nan;99254.03;5049142;28;20075;-75
2022/05/25 06:26:32;;;;;;;14.93;11.63;;;;;;;20.01;nan;99256.88;5049624;28;20032;-74
2022/05/25 06:28:58;;;;;;;18.40;11.85;;;;;;;20.00;nan;99265.13;5048654;28;20033;-73
2022/05/25 06:31:25;;;;;;;13.95;11.85;;;;;;;20.07;nan;99267.78;5049431;28;20060;-75
2022/05/25 06:33:51;;;;;;;12.55;11.05;;;;;;;20.02;nan;99269.25;5048912;28;20060;-74
2022/05/25 06:36:22;;;;;;;14.35;10.38;;;;;;;20.03;nan;99265.50;5049065;28;20055;-74
2022/05/25 06:38:48;;;;;;;13.68;10.57;;;;;;;20.01;nan;99267.59;5048767;28;20033;-73
2022/05/25 06:41:15;;;;;;;11.85;10.65;;;;;;;19.94;nan;99277.50;5048884;28;20303;-73
2022/05/25 06:43:41;;;;;;;12.15;10.57;;;;;;;19.90;nan;99281.63;5045251;28;20032;-74
2022/05/25 06:46:08;;;;;;;11.90;10.70;;;;;;;19.93;nan;99281.19;5048866;28;20025;-74
2022/05/25 06:48:33;;;;;;;15.55;10.35;;;;;;;19.93;nan;99286.56;5049233;28;20481;-74
2022/05/25 06:51:08;;;;;;;16.30;10.82;;;;;;;19.99;nan;99291.06;5049326;28;20040;-76
2022/05/25 06:53:34;;;;;;;11.50;10.25;;;;;;;19.98;nan;99284.06;5049286;28;20378;-74
2022/05/25 06:55:59;;;;;;;12.88;10.00;;;;;;;19.99;nan;99288.41;5047467;28;20035;-75
2022/05/25 06:58:25;;;;;;;14.55;9.30;;;;;;;20.03;nan;99286.94;5047710;28;20048;-75
2022/05/25 07:00:50;;;;;;;10.77;8.63;;;;;;;20.15;nan;99300.50;5048956;28;20119;-75
2022/05/25 07:03:16;;;;;;;10.50;9.45;;;;;;;20.20;nan;99303.41;5048709;28;20029;-73
2022/05/25 07:05:41;;;;;;;10.85;9.10;;;;;;;20.24;nan;99298.44;5049158;28;20389;-73
2022/05/25 07:08:07;;;;;;;10.75;9.05;;;;;;;20.38;nan;99305.44;5048674;28;20033;-75
2022/05/25 07:10:32;;;;;;;11.05;9.10;;;;;;;20.42;nan;99306.66;5048657;28;20033;-75
2022/05/25 07:12:58;;;;;;;9.48;8.57;;;;;;;20.52;nan;99308.88;5049112;28;20032;-75
2022/05/25 07:15:23;;;;;;;9.77;8.88;;;;;;;20.63;nan;99314.38;5047100;28;20521;-75
2022/05/25 07:17:49;;;;;;;8.82;7.65;;;;;;;20.55;nan;99311.97;5048757;28;20493;-76
2022/05/25 07:20:14;;;;;;;8.82;7.43;;;;;;;20.51;nan;99315.25;5050658;28;20406;-75
2022/05/25 07:22:40;;;;;;;7.88;7.07;;;;;;;20.61;nan;99321.84;5052712;28;20042;-74
2022/05/25 07:25:06;;;;;;;8.10;7.00;;;;;;;20.69;nan;99334.97;5052238;28;20044;-74
2022/05/25 07:27:32;;;;;;;6.85;6.15;;;;;;;20.64;nan;99325.94;5052708;28;20035;-73
2022/05/25 07:29:58;;;;;;;6.45;5.85;;;;;;;20.70;nan;99338.50;5052599;28;20036;-73
2022/05/25 07:32:24;;;;;;;7.68;6.22;;;;;;;20.71;nan;99332.91;5052152;28;20235;-74
2022/05/25 07:35:00;;;;;;;6.18;5.57;;;;;;;20.82;nan;99334.94;5052355;28;20067;-75
2022/05/25 07:37:33;;;;;;;6.97;6.03;;;;;;;20.85;nan;99339.84;5052359;28;20032;-75
2022/05/25 07:40:08;;;;;;;7.82;5.72;;;;;;;20.85;nan;99339.84;5051865;28;20503;-73
2022/05/25 07:42:34;;;;;;;6.28;5.78;;;;;;;20.87;nan;99347.69;5052359;28;20494;-75
2022/05/25 07:45:03;;;;;;;8.98;5.80;;;;;;;20.82;nan;99345.66;5052299;28;20372;-74
2022/05/25 07:47:31;;;;;;;6.13;5.50;;;;;;;20.88;nan;99343.16;5051978;28;20033;-74
2022/05/25 07:49:56;;;;;;;6.32;5.82;;;;;;;20.91;nan;99342.75;5052152;28;20069;-75
2022/05/25 07:52:25;;;;;;;6.35;5.75;;;;;;;20.98;nan;99348.88;5049950;28;20112;-75
2022/05/25 07:54:50;;;;;;;8.60;6.88;;;;;;;21.01;nan;99353.81;5052227;28;20025;-74
2022/05/25 07:57:16;;;;;;;9.88;6.43;;;;;;;21.09;nan;99361.59;5051442;28;20052;-75
2022/05/25 07:59:42;;;;;;;10.15;7.13;;;;;;;21.21;nan;99359.91;5052106;28;20385;-75
2022/05/25 08:07:48;;;;;;;9.15;8.20;;;;;;;21.51;nan;99363.63;5048828;28;20029;-74
2022/05/25 08:10:17;;;;;;;9.95;8.48;;;;;;;21.60;nan;99370.38;5051688;28;20029;-75
2022/05/25 08:12:44;;;;;;;9.65;8.75;;;;;;;21.66;nan;99366.00;5048176;28;20025;-75
2022/05/25 08:15:12;;;;;;;10.02;8.25;;;;;;;21.62;nan;99362.91;5047537;28;20390;-74
2022/05/25 08:17:38;;;;;;;9.45;8.45;;;;;;;21.81;nan;99371.03;5051404;28;20051;-74
2022/05/25 08:20:05;;;;;;;12.40;8.30;;;;;;;21.88;nan;99374.50;5051070;28;20130;-74
2022/05/25 08:22:30;;;;;;;11.45;8.95;;;;;;;21.89;nan;99378.81;5051396;28;20029;-75
2022/05/25 08:24:57;;;;;;;10.38;9.38;;;;;;;21.83;nan;99368.97;5050290;28;20028;-74
2022/05/25 08:27:23;;;;;;;9.23;8.35;;;;;;;21.84;nan;99378.66;5049976;28;20506;-74
2022/05/25 08:29:48;;;;;;;10.30;9.35;;;;;;;21.80;nan;99374.75;5050280;28;20036;-74
2022/05/25 08:32:14;;;;;;;11.40;10.02;;;;;;;21.77;nan;99375.22;5051302;28;20044;-74
2022/05/25 08:34:40;;;;;;;12.23;9.18;;;;;;;21.82;nan;99380.75;5052255;28;20040;-74
2022/05/25 08:37:05;;;;;;;10.63;9.63;;;;;;;21.84;nan;99387.56;5052180;28;20033;-73
2022/05/25 08:39:31;;;;;;;10.50;8.20;;;;;;;21.88;nan;99388.75;5051656;28;20051;-75
2022/05/25 08:42:01;;;;;;;10.77;8.88;;;;;;;21.99;nan;99387.22;5051675;28;20116;-74
2022/05/25 08:44:28;;;;;;;9.47;8.50;;;;;;;22.00;nan;99386.19;5051050;28;20488;-74
2022/05/25 08:46:57;;;;;;;14.73;8.98;;;;;;;22.03;nan;99385.78;5051133;28;20051;-74
2022/05/25 08:49:25;;;;;;;10.88;9.07;;;;;;;21.97;nan;99376.69;5050876;28;20025;-75
2022/05/25 08:51:57;;;;;;;9.55;8.65;;;;;;;21.93;nan;99374.66;5051084;28;20033;-74
2022/05/25 08:54:28;;;;;;;11.15;9.60;;;;;;;21.93;nan;99377.34;5049905;28;20180;-73
2022/05/25 08:57:09;;;;;;;9.52;8.13;;;;;;;21.85;nan;99380.31;5049963;28;20488;-75
2022/05/25 08:59:45;;;;;;;12.00;9.35;;;;;;;21.69;nan;99386.22;5048682;28;20497;-75
2022/05/25 09:02:28;;;;;;;12.75;10.30;;;;;;;21.64;nan;99400.31;5047633;28;20758;-74
2022/05/25 09:05:00;;;;;;;10.02;9.13;;;;;;;21.70;nan;99401.28;5048906;28;20025;-73
2022/05/25 09:08:02;;;;;;;10.80;9.70;;;;;;;21.78;nan;99411.78;5049311;28;20037;-73
2022/05/25 09:10:30;;;;;;;10.63;9.32;;;;;;;21.77;nan;99405.56;5048175;28;20501;-74
2022/05/25 09:13:13;;;;;;;10.55;9.05;;;;;;;21.84;nan;99402.84;5049547;28;20025;-75
2022/05/25 09:18:33;;;;;;;10.75;8.80;;;;;;;22.14;nan;99403.84;5048184;28;20044;-74
2022/05/25 09:21:03;;;;;;;10.38;9.35;;;;;;;22.34;nan;99401.78;5048119;28;20083;-75
2022/05/25 09:23:29;;;;;;;10.27;9.27;;;;;;;22.48;nan;99399.78;5050520;28;20033;-74
2022/05/25 09:25:56;;;;;;;14.68;9.60;;;;;;;22.47;nan;99398.13;5049515;28;20132;-73
2022/05/25 09:28:27;;;;;;;14.68;9.80;;;;;;;22.50;nan;99396.88;5048908;28;20045;-74
2022/05/25 09:30:56;;;;;;;9.80;8.95;;;;;;;22.62;nan;99397.78;5049336;28;20029;-73
2022/05/25 09:33:40;;;;;;;10.57;8.82;;;;;;;22.67;nan;99393.38;5048704;28;20089;-73
2022/05/25 09:36:15;;;;;;;9.27;8.40;;;;;;;22.78;nan;99397.19;5047628;28;20037;-77
2022/05/25 09:38:45;;;;;;;9.82;8.63;;;;;;;22.94;nan;99404.66;5048652;28;20037;-74
2022/05/25 09:41:21;;;;;;;12.07;9.98;;;;;;;22.98;nan;99411.22;5046673;28;20094;-74
2022/05/25 09:43:54;;;;;;;10.45;9.10;;;;;;;22.94;nan;99422.66;5047914;28;20044;-74
2022/05/25 09:46:44;;;;;;;13.00;8.75;;;;;;;22.84;nan;99415.13;5049773;28;20051;-74
2022/05/25 09:49:24;;;;;;;9.70;8.70;;;;;;;22.94;nan;99410.03;5044139;28;20487;-76
2022/05/25 09:51:53;;;;;;;11.63;8.65;;;;;;;23.13;nan;99411.66;5046755;28;20029;-74
2022/05/25 09:54:36;;;;;;;9.77;8.77;;;;;;;23.26;nan;99416.88;5048498;28;20378;-75
2022/05/25 09:57:07;;;;;;;10.18;8.63;;;;;;;23.36;nan;99423.56;5048918;28;20115;-75
2022/05/25 09:59:37;;;;;;;8.73;7.35;;;;;;;23.54;nan;99437.84;5049914;28;20547;-74
2022/05/25 10:02:23;;;;;;;9.23;7.95;;;;;;;23.58;nan;99438.19;5049698;28;20040;-74
2022/05/25 10:04:52;;;;;;;9.80;8.30;;;;;;;23.64;nan;99439.97;5046728;28;20424;-74
2022/05/25 10:07:36;;;;;;;9.60;7.95;;;;;;;23.57;nan;99442.75;5049059;28;20040;-74
2022/05/25 10:10:10;;;;;;;7.90;7.20;;;;;;;23.64;nan;99438.09;5049297;28;20056;-75
2022/05/25 10:12:38;;;;;;;12.00;7.85;;;;;;;23.76;nan;99446.22;5049454;28;20475;-73
2022/05/25 10:15:07;;;;;;;10.10;7.32;;;;;;;23.92;nan;99445.53;5049268;28;20527;-74
2022/05/25 10:17:42;;;;;;;8.25;6.95;;;;;;;24.15;nan;99438.56;5049790;28;20064;-74
2022/05/25 10:20:45;;;;;;;7.93;6.75;;;;;;;24.32;nan;99444.91;5048756;28;20041;-74
2022/05/25 10:23:23;;;;;;;8.13;6.95;;;;;;;24.52;nan;99450.75;5045024;28;20115;-75
2022/05/25 10:25:53;;;;;;;8.35;7.55;;;;;;;24.48;nan;99442.31;5046454;28;20029;-76
2022/05/25 10:28:33;;;;;;;8.70;7.05;;;;;;;24.52;nan;99450.75;5049002;28;20052;-74
2022/05/25 10:36:59;;;;;;;10.43;7.47;;;;;;;23.80;nan;99435.81;5046401;28;20061;-74
2022/05/25 10:39:32;;;;;;;11.50;7.53;;;;;;;23.81;nan;99432.84;5048809;28;20425;-74
2022/05/25 10:42:25;;;;;;;9.57;7.97;;;;;;;23.89;nan;99424.44;5049104;28;20111;-75
2022/05/25 10:45:01;;;;;;;8.30;7.05;;;;;;;23.94;nan;99418.34;5046519;28;20147;-76
2022/05/25 10:47:45;;;;;;;12.57;7.25;;;;;;;23.87;nan;99415.75;5049007;28;20044;-74
2022/05/25 10:50:21;;;;;;;10.32;7.03;;;;;;;23.90;nan;99415.31;5045079;28;20450;-75
2022/05/25 10:52:52;;;;;;;9.40;6.95;;;;;;;23.86;nan;99407.91;5047440;28;20079;-75
2022/05/25 10:55:18;;;;;;;7.30;6.70;;;;;;;23.77;nan;99410.13;5052538;28;20061;-75
2022/05/25 10:58:08;;;;;;;7.80;7.10;;;;;;;23.66;nan;99419.00;5053209;28;20089;-75
2022/05/25 11:00:45;;;;;;;8.80;7.90;;;;;;;23.62;nan;99409.75;5052208;28;20037;-75
2022/05/25 11:03:39;;;;;;;7.88;7.07;;;;;;;23.79;nan;99399.97;5048876;28;20504;-76
2022/05/25 11:06:13;;;;;;;8.77;7.35;;;;;;;23.65;nan;99393.13;5052140;28;20116;-75
2022/05/25 11:09:07;;;;;;;8.95;7.68;;;;;;;23.45;nan;99395.25;5053025;28;20040;-75
2022/05/25 11:11:44;;;;;;;7.93;6.75;;;;;;;23.40;nan;99395.13;5051529;28;20025;-75
2022/05/25 11:14:13;;;;;;;8.52;6.90;;;;;;;23.40;nan;99398.63;5048779;28;20342;-74
2022/05/25 11:17:05;;;;;;;8.75;6.97;;;;;;;23.53;nan;99403.88;5051556;28;20122;-75
2022/05/25 11:19:33;;;;;;;6.53;5.93;;;;;;;23.64;nan;99405.75;5051067;28;20126;-74
2022/05/25 11:22:05;;;;;;;7.13;6.28;;;;;;;23.75;nan;99401.44;5052625;28;20065;-74
2022/05/25 11:24:59;;;;;;;8.43;6.35;;;;;;;23.90;nan;99403.72;5052955;28;20092;-74
2022/05/25 11:27:39;;;;;;;7.15;6.30;;;;;;;24.03;nan;99415.06;5049555;28;20536;-75
2022/05/25 11:30:17;;;;;;;7.03;5.35;;;;;;;24.15;nan;99416.97;5051986;28;20041;-75
2022/05/25 11:33:06;;;;;;;6.97;5.80;;;;;;;24.31;nan;99410.91;5048962;28;20032;-74
2022/05/25 11:35:48;;;;;;;6.68;4.50;;;;;;;24.47;nan;99427.19;5051425;28;20048;-74
2022/05/25 11:38:35;;;;;;;7.22;5.50;;;;;;;24.58;nan;99433.63;5047049;28;20079;-75
2022/05/25 11:41:22;;;;;;;6.85;5.70;;;;;;;24.49;nan;99424.28;5049291;28;20047;-74
2022/05/25 11:43:51;;;;;;;11.05;5.10;;;;;;;24.49;nan;99429.66;5048917;28;20036;-74
2022/05/25 11:46:16;;;;;;;4.95;4.53;;;;;;;24.47;nan;99437.16;5051876;28;20069;-74
2022/05/25 11:48:56;;;;;;;7.80;4.80;;;;;;;24.39;nan;99434.81;5052268;28;20099;-74
2022/05/25 11:51:22;;;;;;;;;;;;;;;24.30;nan;99436.22;5049809;28;20074;-75
2022/05/25 11:54:02;;;;;;;6.30;4.25;;;;;;;24.21;nan;99440.34;5052194;28;19916;-74
2022/05/25 11:56:40;;;;;;;6.50;5.00;;;;;;;24.09;nan;99435.72;5050806;28;20029;-74
2022/05/25 11:59:39;;;;;;;8.00;4.53;;;;;;;24.01;nan;99444.16;5051549;28;20026;-75
2022/05/25 12:02:13;;;;;;;6.70;4.10;;;;;;;23.98;nan;99444.59;5050659;28;20049;-74
2022/05/25 12:04:38;;;;;;;6.18;4.13;;;;;;;23.97;nan;99437.59;5051162;28;20053;-75
2022/05/25 12:07:18;;;;;;;8.40;4.13;;;;;;;23.89;nan;99440.63;5051702;28;20091;-74
2022/05/25 12:09:44;;;;;;;;;;;;;;;23.80;nan;99431.22;5048740;28;20499;-76
2022/05/25 12:12:24;;;;;;;5.97;3.80;;;;;;;23.65;nan;99438.91;5051718;28;20003;-75
2022/05/25 12:15:01;;;;;;;4.90;3.90;;;;;;;23.46;nan;99440.84;5047648;28;20033;-74
2022/05/25 12:17:36;;;;;;;6.13;3.88;;;;;;;23.30;nan;99429.88;5051415;28;20048;-74
2022/05/25 12:20:04;;;;;;;5.95;4.32;;;;;;;23.13;nan;99422.44;5051277;28;20041;-74
2022/05/25 12:22:33;;;;;;;8.55;4.28;;;;;;;23.00;nan;99430.66;5051526;28;20036;-75
2022/05/25 12:25:04;;;;;;;7.85;5.60;;;;;;;22.74;nan;99433.66;5051725;28;20039;-75
2022/05/25 12:28:02;;;;;;;18.52;8.05;;;;;;;22.26;nan;99442.41;5051388;28;20037;-75